Airfield :
LOGIN :

Register | Disclaimer

   EN    FR    IT 

 










Legend :    VFR   Marginal VFR   IFR   Intensive IFR   Very Intensive IFR
Visi :
Ceiling :
>= 8 km
>= 3000ft
5 to 8 km
1000 to 3000 ft
1500m to 5 km
500 to 1000 ft
800 to 1500m
200 to 500 ft
< 800m
< 200 ft
Symbols :   Thunderstorms  Fog  Heavy snow  Heavy precipitations  Wind > 20 kt
SIGMETs :     Misc.  Thunderstorms  Icing  Turbulence  Mountain Waves  Volcanic Ashes






- Airport Elevation : 913 ft


LFSX - Luxeuil

CURRENT METAR :
  • 232330Z AUTO 10007KT 5000 BR NSC M04/M05 Q1026

EXPIRED METARs :
  • 232300Z AUTO 09006KT 5000 BR NSC M04/M05 Q1026
  • 232230Z AUTO 11006KT 5000 BR ////// M04/M05 Q1026
  • 232200Z AUTO 12007KT 5000 BR NSC M04/M04 Q1026
  • 232130Z AUTO 11007KT 5000 BR NSC M03/M04 Q1026
  • 232100Z AUTO 11008KT 5000 BR FEW007 M03/M04 Q1026

TAF TAF LFSX
Valid from the 23 at 21:00 until the 24 at 21:00 UTC


232000Z 2321/2421 12007KT 4500 BR NSC
TEMPO 2400/2407 0600 FZFG SCT005
BECMG 2409/2411 7000 NSW



MET'MAP, your aeronautical weather chart ! - Copyright ORBIFLY December 2007 - Disclaimer

ORBIFLY MET'MAP TEAM :

Programming & Development : Alexandra Zaïnal
Concept & original design : Baudouin d'Aumeries
Assistance for programming : Marc-Olivier Méhu
Technical & hardware support : Manuel Goepfert

Contact : metmap@orbifly.com




SOURCES & CREDITS :

   NOAA